sensor_id;sensor_type;location;lat;lon;timestamp;P1;durP1;ratioP1;P2;durP2;ratioP2
3193;SDS011;1608;50.860;13.466;2022-07-01T00:02:00;13.53;;;12.20;;
3193;SDS011;1608;50.860;13.466;2022-07-01T00:04:28;14.80;;;13.27;;
3193;SDS011;1608;50.860;13.466;2022-07-01T00:06:54;13.53;;;12.10;;
3193;SDS011;1608;50.860;13.466;2022-07-01T00:09:21;14.13;;;11.40;;
3193;SDS011;1608;50.860;13.466;2022-07-01T00:11:48;15.40;;;11.97;;
3193;SDS011;1608;50.860;13.466;2022-07-01T00:14:15;11.80;;;10.40;;
3193;SDS011;1608;50.860;13.466;2022-07-01T00:16:42;11.67;;;10.47;;
3193;SDS011;1608;50.860;13.466;2022-07-01T00:19:10;15.03;;;10.87;;
3193;SDS011;1608;50.860;13.466;2022-07-01T00:21:37;15.63;;;11.53;;
3193;SDS011;1608;50.860;13.466;2022-07-01T00:24:04;13.10;;;11.70;;
3193;SDS011;1608;50.860;13.466;2022-07-01T00:26:31;15.80;;;12.80;;
3193;SDS011;1608;50.860;13.466;2022-07-01T00:28:58;14.30;;;11.97;;
3193;SDS011;1608;50.860;13.466;2022-07-01T00:31:25;18.07;;;13.30;;
3193;SDS011;1608;50.860;13.466;2022-07-01T00:33:52;14.67;;;12.10;;
3193;SDS011;1608;50.860;13.466;2022-07-01T00:36:20;19.77;;;12.70;;
3193;SDS011;1608;50.860;13.466;2022-07-01T00:38:47;25.60;;;13.47;;
3193;SDS011;1608;50.860;13.466;2022-07-01T00:41:13;13.33;;;11.83;;
3193;SDS011;1608;50.860;13.466;2022-07-01T00:43:41;14.07;;;11.57;;
3193;SDS011;1608;50.860;13.466;2022-07-01T00:46:08;12.83;;;11.50;;
3193;SDS011;1608;50.860;13.466;2022-07-01T00:48:35;15.47;;;13.07;;
3193;SDS011;1608;50.860;13.466;2022-07-01T00:51:02;13.27;;;11.60;;
3193;SDS011;1608;50.860;13.466;2022-07-01T00:53:31;17.80;;;13.47;;
3193;SDS011;1608;50.860;13.466;2022-07-01T00:55:57;19.03;;;13.17;;
3193;SDS011;1608;50.860;13.466;2022-07-01T00:58:25;14.67;;;13.17;;
3193;SDS011;1608;50.860;13.466;2022-07-01T01:00:52;16.07;;;12.83;;
3193;SDS011;1608;50.860;13.466;2022-07-01T01:03:20;16.83;;;14.00;;
3193;SDS011;1608;50.860;13.466;2022-07-01T01:05:47;15.87;;;13.37;;
3193;SDS011;1608;50.860;13.466;2022-07-01T01:08:15;17.03;;;13.07;;
3193;SDS011;1608;50.860;13.466;2022-07-01T01:10:44;18.40;;;14.43;;
3193;SDS011;1608;50.860;13.466;2022-07-01T01:13:10;15.40;;;13.23;;
3193;SDS011;1608;50.860;13.466;2022-07-01T01:15:37;15.73;;;12.80;;
3193;SDS011;1608;50.860;13.466;2022-07-01T01:18:04;19.80;;;15.00;;
3193;SDS011;1608;50.860;13.466;2022-07-01T01:20:34;14.93;;;12.27;;
3193;SDS011;1608;50.860;13.466;2022-07-01T01:23:01;15.13;;;12.60;;
3193;SDS011;1608;50.860;13.466;2022-07-01T01:25:29;30.33;;;14.17;;
3193;SDS011;1608;50.860;13.466;2022-07-01T01:27:56;17.53;;;14.17;;
3193;SDS011;1608;50.860;13.466;2022-07-01T01:30:23;22.70;;;13.80;;
3193;SDS011;1608;50.860;13.466;2022-07-01T01:32:50;18.63;;;14.30;;
3193;SDS011;1608;50.860;13.466;2022-07-01T01:35:18;16.93;;;13.03;;
3193;SDS011;1608;50.860;13.466;2022-07-01T01:37:46;18.00;;;14.63;;
3193;SDS011;1608;50.860;13.466;2022-07-01T01:40:13;19.90;;;14.30;;
3193;SDS011;1608;50.860;13.466;2022-07-01T01:42:41;18.87;;;12.27;;
3193;SDS011;1608;50.860;13.466;2022-07-01T01:45:09;22.03;;;13.97;;
3193;SDS011;1608;50.860;13.466;2022-07-01T01:47:36;18.37;;;15.47;;
3193;SDS011;1608;50.860;13.466;2022-07-01T01:50:04;16.73;;;14.43;;
3193;SDS011;1608;50.860;13.466;2022-07-01T01:52:31;21.57;;;12.60;;
3193;SDS011;1608;50.860;13.466;2022-07-01T01:54:59;16.80;;;14.40;;
3193;SDS011;1608;50.860;13.466;2022-07-01T01:57:26;13.53;;;11.20;;
3193;SDS011;1608;50.860;13.466;2022-07-01T01:59:53;17.13;;;14.13;;
3193;SDS011;1608;50.860;13.466;2022-07-01T02:02:20;17.60;;;14.30;;
3193;SDS011;1608;50.860;13.466;2022-07-01T02:04:47;18.37;;;12.87;;
3193;SDS011;1608;50.860;13.466;2022-07-01T02:07:14;19.60;;;14.10;;
3193;SDS011;1608;50.860;13.466;2022-07-01T02:09:41;20.27;;;15.13;;
3193;SDS011;1608;50.860;13.466;2022-07-01T02:12:09;15.50;;;13.33;;
3193;SDS011;1608;50.860;13.466;2022-07-01T02:14:36;20.23;;;15.13;;
3193;SDS011;1608;50.860;13.466;2022-07-01T02:17:03;17.70;;;14.83;;
3193;SDS011;1608;50.860;13.466;2022-07-01T02:19:30;15.40;;;13.67;;
3193;SDS011;1608;50.860;13.466;2022-07-01T02:21:56;24.83;;;17.07;;
3193;SDS011;1608;50.860;13.466;2022-07-01T02:24:23;15.70;;;13.63;;
3193;SDS011;1608;50.860;13.466;2022-07-01T02:26:51;16.50;;;13.80;;
3193;SDS011;1608;50.860;13.466;2022-07-01T02:29:20;16.40;;;13.37;;
3193;SDS011;1608;50.860;13.466;2022-07-01T02:31:47;18.30;;;14.40;;
3193;SDS011;1608;50.860;13.466;2022-07-01T02:34:14;16.40;;;13.67;;
3193;SDS011;1608;50.860;13.466;2022-07-01T02:36:41;17.00;;;13.67;;
3193;SDS011;1608;50.860;13.466;2022-07-01T02:39:07;16.73;;;14.10;;
3193;SDS011;1608;50.860;13.466;2022-07-01T02:41:34;19.27;;;15.70;;
3193;SDS011;1608;50.860;13.466;2022-07-01T02:44:22;15.33;;;13.60;;
3193;SDS011;1608;50.860;13.466;2022-07-01T02:46:49;14.30;;;12.80;;
3193;SDS011;1608;50.860;13.466;2022-07-01T02:49:16;20.80;;;14.63;;
3193;SDS011;1608;50.860;13.466;2022-07-01T02:51:43;17.20;;;12.90;;
3193;SDS011;1608;50.860;13.466;2022-07-01T02:54:10;17.83;;;15.90;;
3193;SDS011;1608;50.860;13.466;2022-07-01T02:56:36;19.50;;;15.80;;
3193;SDS011;1608;50.860;13.466;2022-07-01T02:59:03;16.77;;;15.00;;
3193;SDS011;1608;50.860;13.466;2022-07-01T03:01:31;16.20;;;14.47;;
3193;SDS011;1608;50.860;13.466;2022-07-01T03:03:58;18.33;;;15.07;;
3193;SDS011;1608;50.860;13.466;2022-07-01T03:06:25;18.27;;;15.10;;
3193;SDS011;1608;50.860;13.466;2022-07-01T03:08:51;21.23;;;12.90;;
3193;SDS011;1608;50.860;13.466;2022-07-01T03:11:18;21.87;;;15.77;;
3193;SDS011;1608;50.860;13.466;2022-07-01T03:13:45;17.60;;;15.73;;
3193;SDS011;1608;50.860;13.466;2022-07-01T03:16:12;16.87;;;13.60;;
3193;SDS011;1608;50.860;13.466;2022-07-01T03:18:41;16.70;;;14.90;;
3193;SDS011;1608;50.860;13.466;2022-07-01T03:21:08;19.70;;;15.07;;
3193;SDS011;1608;50.860;13.466;2022-07-01T03:23:35;20.80;;;16.13;;
3193;SDS011;1608;50.860;13.466;2022-07-01T03:26:01;15.90;;;12.80;;
3193;SDS011;1608;50.860;13.466;2022-07-01T03:28:28;17.63;;;15.27;;
3193;SDS011;1608;50.860;13.466;2022-07-01T03:30:56;18.00;;;13.60;;
3193;SDS011;1608;50.860;13.466;2022-07-01T03:33:23;20.20;;;15.50;;
3193;SDS011;1608;50.860;13.466;2022-07-01T03:35:51;19.20;;;15.40;;
3193;SDS011;1608;50.860;13.466;2022-07-01T03:38:18;17.27;;;15.47;;
3193;SDS011;1608;50.860;13.466;2022-07-01T03:40:45;20.00;;;14.13;;
3193;SDS011;1608;50.860;13.466;2022-07-01T03:43:12;14.80;;;12.83;;
3193;SDS011;1608;50.860;13.466;2022-07-01T03:45:38;15.13;;;13.60;;
3193;SDS011;1608;50.860;13.466;2022-07-01T03:48:05;15.20;;;13.27;;
3193;SDS011;1608;50.860;13.466;2022-07-01T03:50:32;14.83;;;12.67;;
3193;SDS011;1608;50.860;13.466;2022-07-01T03:53:00;15.70;;;13.50;;
3193;SDS011;1608;50.860;13.466;2022-07-01T03:55:44;19.83;;;13.03;;
3193;SDS011;1608;50.860;13.466;2022-07-01T03:58:11;16.33;;;12.30;;
3193;SDS011;1608;50.860;13.466;2022-07-01T04:00:38;15.30;;;13.53;;
3193;SDS011;1608;50.860;13.466;2022-07-01T04:03:05;16.90;;;13.93;;
3193;SDS011;1608;50.860;13.466;2022-07-01T04:05:33;17.70;;;13.70;;
3193;SDS011;1608;50.860;13.466;2022-07-01T04:08:02;15.93;;;12.83;;
3193;SDS011;1608;50.860;13.466;2022-07-01T04:10:31;15.83;;;12.50;;
3193;SDS011;1608;50.860;13.466;2022-07-01T04:12:58;17.50;;;13.83;;
3193;SDS011;1608;50.860;13.466;2022-07-01T04:15:26;15.90;;;13.00;;
3193;SDS011;1608;50.860;13.466;2022-07-01T04:17:52;15.70;;;12.87;;
3193;SDS011;1608;50.860;13.466;2022-07-01T04:20:19;14.60;;;11.90;;
3193;SDS011;1608;50.860;13.466;2022-07-01T04:22:46;12.13;;;10.50;;
3193;SDS011;1608;50.860;13.466;2022-07-01T04:25:13;11.60;;;10.40;;
3193;SDS011;1608;50.860;13.466;2022-07-01T04:27:40;11.37;;;10.17;;
3193;SDS011;1608;50.860;13.466;2022-07-01T04:30:07;9.90;;;8.90;;
3193;SDS011;1608;50.860;13.466;2022-07-01T04:32:35;9.70;;;8.50;;
3193;SDS011;1608;50.860;13.466;2022-07-01T04:35:01;8.73;;;7.83;;
3193;SDS011;1608;50.860;13.466;2022-07-01T04:37:29;14.27;;;9.60;;
3193;SDS011;1608;50.860;13.466;2022-07-01T04:39:56;8.93;;;8.13;;
3193;SDS011;1608;50.860;13.466;2022-07-01T04:42:25;11.60;;;9.57;;
3193;SDS011;1608;50.860;13.466;2022-07-01T04:44:52;11.90;;;8.00;;
3193;SDS011;1608;50.860;13.466;2022-07-01T04:47:19;8.53;;;7.63;;
3193;SDS011;1608;50.860;13.466;2022-07-01T04:49:47;12.07;;;8.47;;
3193;SDS011;1608;50.860;13.466;2022-07-01T04:52:14;9.53;;;8.63;;
3193;SDS011;1608;50.860;13.466;2022-07-01T04:54:41;19.77;;;10.87;;
3193;SDS011;1608;50.860;13.466;2022-07-01T04:57:07;13.03;;;8.80;;
3193;SDS011;1608;50.860;13.466;2022-07-01T04:59:36;9.40;;;8.50;;
3193;SDS011;1608;50.860;13.466;2022-07-01T05:02:02;9.80;;;8.70;;
3193;SDS011;1608;50.860;13.466;2022-07-01T05:04:29;8.77;;;7.87;;
3193;SDS011;1608;50.860;13.466;2022-07-01T05:06:56;8.77;;;7.77;;
3193;SDS011;1608;50.860;13.466;2022-07-01T05:09:23;11.73;;;8.90;;
3193;SDS011;1608;50.860;13.466;2022-07-01T05:11:49;10.60;;;8.27;;
3193;SDS011;1608;50.860;13.466;2022-07-01T05:14:16;9.33;;;8.57;;
3193;SDS011;1608;50.860;13.466;2022-07-01T05:16:44;13.33;;;8.33;;
3193;SDS011;1608;50.860;13.466;2022-07-01T05:19:11;11.53;;;9.73;;
3193;SDS011;1608;50.860;13.466;2022-07-01T05:22:04;9.37;;;8.43;;
3193;SDS011;1608;50.860;13.466;2022-07-01T05:24:31;14.50;;;9.50;;
3193;SDS011;1608;50.860;13.466;2022-07-01T05:26:58;10.27;;;8.10;;
3193;SDS011;1608;50.860;13.466;2022-07-01T05:29:27;12.73;;;8.50;;
3193;SDS011;1608;50.860;13.466;2022-07-01T05:31:55;10.30;;;7.93;;
3193;SDS011;1608;50.860;13.466;2022-07-01T05:34:22;11.80;;;9.20;;
3193;SDS011;1608;50.860;13.466;2022-07-01T05:36:49;16.67;;;8.20;;
3193;SDS011;1608;50.860;13.466;2022-07-01T05:39:16;9.77;;;7.90;;
3193;SDS011;1608;50.860;13.466;2022-07-01T05:41:43;11.63;;;7.80;;
3193;SDS011;1608;50.860;13.466;2022-07-01T05:44:10;9.10;;;8.20;;
3193;SDS011;1608;50.860;13.466;2022-07-01T05:46:37;10.93;;;9.83;;
3193;SDS011;1608;50.860;13.466;2022-07-01T05:49:05;12.23;;;8.70;;
3193;SDS011;1608;50.860;13.466;2022-07-01T05:51:32;10.10;;;9.03;;
3193;SDS011;1608;50.860;13.466;2022-07-01T05:53:59;9.57;;;8.67;;
3193;SDS011;1608;50.860;13.466;2022-07-01T05:56:26;11.00;;;8.60;;
3193;SDS011;1608;50.860;13.466;2022-07-01T05:58:52;9.43;;;8.50;;
3193;SDS011;1608;50.860;13.466;2022-07-01T06:01:20;12.03;;;7.20;;
3193;SDS011;1608;50.860;13.466;2022-07-01T06:03:47;10.93;;;8.67;;
3193;SDS011;1608;50.860;13.466;2022-07-01T06:06:15;17.20;;;8.40;;
3193;SDS011;1608;50.860;13.466;2022-07-01T06:08:43;9.33;;;8.00;;
3193;SDS011;1608;50.860;13.466;2022-07-01T06:11:10;11.60;;;8.27;;
3193;SDS011;1608;50.860;13.466;2022-07-01T06:13:36;9.10;;;8.30;;
3193;SDS011;1608;50.860;13.466;2022-07-01T06:16:03;9.20;;;8.27;;
3193;SDS011;1608;50.860;13.466;2022-07-01T06:18:31;12.03;;;9.23;;
3193;SDS011;1608;50.860;13.466;2022-07-01T06:20:58;10.13;;;8.50;;
3193;SDS011;1608;50.860;13.466;2022-07-01T06:23:26;8.00;;;7.30;;
3193;SDS011;1608;50.860;13.466;2022-07-01T06:25:53;9.40;;;7.70;;
3193;SDS011;1608;50.860;13.466;2022-07-01T06:28:20;12.53;;;7.10;;
3193;SDS011;1608;50.860;13.466;2022-07-01T06:30:47;7.00;;;6.30;;
3193;SDS011;1608;50.860;13.466;2022-07-01T06:33:14;10.23;;;7.80;;
3193;SDS011;1608;50.860;13.466;2022-07-01T06:35:41;7.57;;;6.60;;
3193;SDS011;1608;50.860;13.466;2022-07-01T06:38:07;7.30;;;6.60;;
3193;SDS011;1608;50.860;13.466;2022-07-01T06:40:35;7.17;;;6.47;;
3193;SDS011;1608;50.860;13.466;2022-07-01T06:43:02;10.40;;;7.00;;
3193;SDS011;1608;50.860;13.466;2022-07-01T06:45:29;9.60;;;7.77;;
3193;SDS011;1608;50.860;13.466;2022-07-01T06:47:56;9.50;;;7.93;;
3193;SDS011;1608;50.860;13.466;2022-07-01T06:50:23;11.67;;;7.80;;
3193;SDS011;1608;50.860;13.466;2022-07-01T06:52:50;9.60;;;7.87;;
3193;SDS011;1608;50.860;13.466;2022-07-01T06:55:16;8.47;;;7.50;;
3193;SDS011;1608;50.860;13.466;2022-07-01T06:57:45;7.07;;;6.30;;
3193;SDS011;1608;50.860;13.466;2022-07-01T07:00:12;11.10;;;8.60;;
3193;SDS011;1608;50.860;13.466;2022-07-01T07:02:39;8.93;;;8.33;;
3193;SDS011;1608;50.860;13.466;2022-07-01T07:05:07;9.40;;;8.40;;
3193;SDS011;1608;50.860;13.466;2022-07-01T07:07:34;12.10;;;7.90;;
3193;SDS011;1608;50.860;13.466;2022-07-01T07:10:01;9.07;;;8.17;;
3193;SDS011;1608;50.860;13.466;2022-07-01T07:12:28;8.33;;;7.53;;
3193;SDS011;1608;50.860;13.466;2022-07-01T07:14:56;8.90;;;8.20;;
3193;SDS011;1608;50.860;13.466;2022-07-01T07:17:23;9.30;;;7.80;;
3193;SDS011;1608;50.860;13.466;2022-07-01T07:19:50;11.03;;;8.57;;
3193;SDS011;1608;50.860;13.466;2022-07-01T07:22:17;11.10;;;8.17;;
3193;SDS011;1608;50.860;13.466;2022-07-01T07:24:43;10.73;;;7.60;;
3193;SDS011;1608;50.860;13.466;2022-07-01T07:27:10;17.37;;;9.47;;
3193;SDS011;1608;50.860;13.466;2022-07-01T07:29:37;11.40;;;10.30;;
3193;SDS011;1608;50.860;13.466;2022-07-01T07:32:06;10.40;;;9.40;;
3193;SDS011;1608;50.860;13.466;2022-07-01T07:34:33;12.40;;;9.10;;
3193;SDS011;1608;50.860;13.466;2022-07-01T07:37:00;10.10;;;9.30;;
3193;SDS011;1608;50.860;13.466;2022-07-01T07:39:27;11.40;;;10.30;;
3193;SDS011;1608;50.860;13.466;2022-07-01T07:41:54;13.50;;;10.17;;
3193;SDS011;1608;50.860;13.466;2022-07-01T07:44:21;10.07;;;9.17;;
3193;SDS011;1608;50.860;13.466;2022-07-01T07:46:47;18.47;;;10.70;;
3193;SDS011;1608;50.860;13.466;2022-07-01T07:49:15;12.97;;;11.73;;
3193;SDS011;1608;50.860;13.466;2022-07-01T07:51:42;13.93;;;12.20;;
3193;SDS011;1608;50.860;13.466;2022-07-01T07:54:09;15.83;;;14.33;;
3193;SDS011;1608;50.860;13.466;2022-07-01T07:56:36;15.03;;;13.40;;
3193;SDS011;1608;50.860;13.466;2022-07-01T07:59:02;15.77;;;13.77;;
3193;SDS011;1608;50.860;13.466;2022-07-01T08:01:29;18.33;;;14.30;;
3193;SDS011;1608;50.860;13.466;2022-07-01T08:03:56;15.13;;;13.63;;
3193;SDS011;1608;50.860;13.466;2022-07-01T08:06:24;14.80;;;13.30;;
3193;SDS011;1608;50.860;13.466;2022-07-01T08:08:51;16.53;;;14.80;;
3193;SDS011;1608;50.860;13.466;2022-07-01T08:11:18;15.70;;;14.03;;
3193;SDS011;1608;50.860;13.466;2022-07-01T08:13:45;13.93;;;12.60;;
3193;SDS011;1608;50.860;13.466;2022-07-01T08:16:11;18.43;;;14.33;;
3193;SDS011;1608;50.860;13.466;2022-07-01T08:18:39;17.80;;;16.03;;
3193;SDS011;1608;50.860;13.466;2022-07-01T08:21:06;15.33;;;14.00;;
3193;SDS011;1608;50.860;13.466;2022-07-01T08:23:34;16.90;;;15.37;;
3193;SDS011;1608;50.860;13.466;2022-07-01T08:26:01;18.87;;;14.20;;
3193;SDS011;1608;50.860;13.466;2022-07-01T08:28:28;17.37;;;15.67;;
3193;SDS011;1608;50.860;13.466;2022-07-01T08:30:54;17.73;;;15.90;;
3193;SDS011;1608;50.860;13.466;2022-07-01T08:33:21;17.60;;;14.97;;
3193;SDS011;1608;50.860;13.466;2022-07-01T08:35:48;17.80;;;16.00;;
3193;SDS011;1608;50.860;13.466;2022-07-01T08:38:15;18.20;;;15.97;;
3193;SDS011;1608;50.860;13.466;2022-07-01T08:40:43;17.40;;;15.70;;
3193;SDS011;1608;50.860;13.466;2022-07-01T08:43:10;18.23;;;16.37;;
3193;SDS011;1608;50.860;13.466;2022-07-01T08:45:36;18.27;;;15.83;;
3193;SDS011;1608;50.860;13.466;2022-07-01T08:48:04;18.93;;;16.50;;
3193;SDS011;1608;50.860;13.466;2022-07-01T08:50:33;25.50;;;16.73;;
3193;SDS011;1608;50.860;13.466;2022-07-01T08:53:02;26.87;;;18.77;;
3193;SDS011;1608;50.860;13.466;2022-07-01T08:55:29;22.43;;;17.37;;
3193;SDS011;1608;50.860;13.466;2022-07-01T08:57:58;19.27;;;17.23;;
3193;SDS011;1608;50.860;13.466;2022-07-01T09:00:31;18.83;;;15.93;;
3193;SDS011;1608;50.860;13.466;2022-07-01T09:02:59;23.43;;;16.13;;
3193;SDS011;1608;50.860;13.466;2022-07-01T09:05:27;18.17;;;16.30;;
3193;SDS011;1608;50.860;13.466;2022-07-01T09:07:55;15.70;;;14.07;;
3193;SDS011;1608;50.860;13.466;2022-07-01T09:10:23;17.10;;;12.83;;
3193;SDS011;1608;50.860;13.466;2022-07-01T09:12:50;16.40;;;13.67;;
3193;SDS011;1608;50.860;13.466;2022-07-01T09:15:25;17.60;;;14.77;;
3193;SDS011;1608;50.860;13.466;2022-07-01T09:17:54;19.23;;;16.37;;
3193;SDS011;1608;50.860;13.466;2022-07-01T09:23:02;16.47;;;14.07;;
3193;SDS011;1608;50.860;13.466;2022-07-01T09:25:31;18.13;;;14.63;;
3193;SDS011;1608;50.860;13.466;2022-07-01T09:28:06;16.20;;;14.60;;
3193;SDS011;1608;50.860;13.466;2022-07-01T09:30:36;17.00;;;15.20;;
3193;SDS011;1608;50.860;13.466;2022-07-01T09:33:13;16.87;;;13.83;;
3193;SDS011;1608;50.860;13.466;2022-07-01T09:35:41;16.63;;;13.57;;
3193;SDS011;1608;50.860;13.466;2022-07-01T09:38:10;17.37;;;14.40;;
3193;SDS011;1608;50.860;13.466;2022-07-01T09:40:51;16.70;;;14.53;;
3193;SDS011;1608;50.860;13.466;2022-07-01T09:43:20;14.20;;;11.90;;
3193;SDS011;1608;50.860;13.466;2022-07-01T09:45:50;19.97;;;13.33;;
3193;SDS011;1608;50.860;13.466;2022-07-01T09:48:18;14.63;;;12.30;;
3193;SDS011;1608;50.860;13.466;2022-07-01T09:50:45;16.27;;;9.87;;
3193;SDS011;1608;50.860;13.466;2022-07-01T09:53:12;20.97;;;12.10;;
3193;SDS011;1608;50.860;13.466;2022-07-01T09:55:39;12.13;;;10.90;;
3193;SDS011;1608;50.860;13.466;2022-07-01T09:58:06;12.20;;;11.00;;
3193;SDS011;1608;50.860;13.466;2022-07-01T10:00:32;11.50;;;10.30;;
3193;SDS011;1608;50.860;13.466;2022-07-01T10:03:03;11.30;;;9.97;;
3193;SDS011;1608;50.860;13.466;2022-07-01T10:05:33;12.27;;;11.07;;
3193;SDS011;1608;50.860;13.466;2022-07-01T10:11:09;17.13;;;10.00;;
3193;SDS011;1608;50.860;13.466;2022-07-01T10:13:52;9.87;;;8.80;;
3193;SDS011;1608;50.860;13.466;2022-07-01T10:16:19;12.83;;;11.00;;
3193;SDS011;1608;50.860;13.466;2022-07-01T10:18:48;10.73;;;9.73;;
3193;SDS011;1608;50.860;13.466;2022-07-01T10:21:25;12.73;;;8.97;;
3193;SDS011;1608;50.860;13.466;2022-07-01T10:23:52;11.40;;;10.30;;
3193;SDS011;1608;50.860;13.466;2022-07-01T10:26:36;11.30;;;9.27;;
3193;SDS011;1608;50.860;13.466;2022-07-01T10:29:03;12.70;;;8.47;;
3193;SDS011;1608;50.860;13.466;2022-07-01T10:31:35;10.43;;;9.00;;
3193;SDS011;1608;50.860;13.466;2022-07-01T10:34:04;8.80;;;7.60;;
3193;SDS011;1608;50.860;13.466;2022-07-01T10:36:32;10.97;;;9.87;;
3193;SDS011;1608;50.860;13.466;2022-07-01T10:39:07;11.00;;;9.27;;
3193;SDS011;1608;50.860;13.466;2022-07-01T10:41:37;10.50;;;8.87;;
3193;SDS011;1608;50.860;13.466;2022-07-01T10:44:06;13.57;;;10.00;;
3193;SDS011;1608;50.860;13.466;2022-07-01T10:46:37;10.57;;;8.73;;
3193;SDS011;1608;50.860;13.466;2022-07-01T10:49:10;13.90;;;10.07;;
3193;SDS011;1608;50.860;13.466;2022-07-01T10:51:48;11.67;;;9.70;;
3193;SDS011;1608;50.860;13.466;2022-07-01T10:57:20;11.10;;;9.70;;
3193;SDS011;1608;50.860;13.466;2022-07-01T10:59:49;9.43;;;8.37;;
3193;SDS011;1608;50.860;13.466;2022-07-01T11:02:18;10.13;;;8.00;;
3193;SDS011;1608;50.860;13.466;2022-07-01T11:04:47;8.30;;;7.50;;
3193;SDS011;1608;50.860;13.466;2022-07-01T11:07:16;7.40;;;6.60;;
3193;SDS011;1608;50.860;13.466;2022-07-01T11:09:43;14.30;;;7.40;;
3193;SDS011;1608;50.860;13.466;2022-07-01T11:12:10;7.10;;;6.40;;
3193;SDS011;1608;50.860;13.466;2022-07-01T11:14:37;8.50;;;6.90;;
3193;SDS011;1608;50.860;13.466;2022-07-01T11:17:05;6.53;;;5.27;;
3193;SDS011;1608;50.860;13.466;2022-07-01T11:19:33;6.53;;;4.97;;
3193;SDS011;1608;50.860;13.466;2022-07-01T11:22:02;8.27;;;5.60;;
3193;SDS011;1608;50.860;13.466;2022-07-01T11:24:30;10.50;;;5.47;;
3193;SDS011;1608;50.860;13.466;2022-07-01T11:26:59;6.37;;;4.83;;
3193;SDS011;1608;50.860;13.466;2022-07-01T11:29:31;7.70;;;5.20;;
3193;SDS011;1608;50.860;13.466;2022-07-01T11:31:57;5.03;;;4.13;;
3193;SDS011;1608;50.860;13.466;2022-07-01T11:34:26;5.53;;;3.70;;
3193;SDS011;1608;50.860;13.466;2022-07-01T11:36:54;6.50;;;3.57;;
3193;SDS011;1608;50.860;13.466;2022-07-01T11:39:40;3.70;;;3.40;;
3193;SDS011;1608;50.860;13.466;2022-07-01T11:42:08;2.30;;;2.10;;
3193;SDS011;1608;50.860;13.466;2022-07-01T11:44:37;7.00;;;3.40;;
3193;SDS011;1608;50.860;13.466;2022-07-01T11:47:05;11.90;;;2.90;;
3193;SDS011;1608;50.860;13.466;2022-07-01T11:49:34;3.23;;;2.30;;
3193;SDS011;1608;50.860;13.466;2022-07-01T11:52:10;3.20;;;2.83;;
3193;SDS011;1608;50.860;13.466;2022-07-01T11:54:37;4.27;;;3.80;;
3193;SDS011;1608;50.860;13.466;2022-07-01T11:57:11;7.00;;;2.83;;
3193;SDS011;1608;50.860;13.466;2022-07-01T11:59:39;9.13;;;3.20;;
3193;SDS011;1608;50.860;13.466;2022-07-01T12:02:06;3.03;;;2.33;;
3193;SDS011;1608;50.860;13.466;2022-07-01T12:04:35;4.40;;;3.00;;
3193;SDS011;1608;50.860;13.466;2022-07-01T12:07:02;4.97;;;3.50;;
3193;SDS011;1608;50.860;13.466;2022-07-01T12:09:30;3.17;;;2.43;;
3193;SDS011;1608;50.860;13.466;2022-07-01T12:11:57;5.10;;;2.40;;
3193;SDS011;1608;50.860;13.466;2022-07-01T12:14:26;1.97;;;1.77;;
3193;SDS011;1608;50.860;13.466;2022-07-01T12:16:55;2.80;;;1.93;;
3193;SDS011;1608;50.860;13.466;2022-07-01T12:19:26;2.20;;;2.10;;
3193;SDS011;1608;50.860;13.466;2022-07-01T12:21:54;2.13;;;1.97;;
3193;SDS011;1608;50.860;13.466;2022-07-01T12:24:23;2.87;;;2.67;;
3193;SDS011;1608;50.860;13.466;2022-07-01T12:26:51;3.73;;;2.87;;
3193;SDS011;1608;50.860;13.466;2022-07-01T12:29:20;3.50;;;2.30;;
3193;SDS011;1608;50.860;13.466;2022-07-01T12:31:55;4.53;;;2.90;;
3193;SDS011;1608;50.860;13.466;2022-07-01T12:34:37;6.70;;;2.47;;
3193;SDS011;1608;50.860;13.466;2022-07-01T12:37:09;3.83;;;2.97;;
3193;SDS011;1608;50.860;13.466;2022-07-01T12:39:42;4.10;;;2.90;;
3193;SDS011;1608;50.860;13.466;2022-07-01T12:42:19;2.80;;;2.60;;
3193;SDS011;1608;50.860;13.466;2022-07-01T12:44:46;5.40;;;3.80;;
3193;SDS011;1608;50.860;13.466;2022-07-01T12:47:18;4.10;;;3.40;;
3193;SDS011;1608;50.860;13.466;2022-07-01T12:49:46;6.50;;;4.37;;
3193;SDS011;1608;50.860;13.466;2022-07-01T12:52:22;13.50;;;4.27;;
3193;SDS011;1608;50.860;13.466;2022-07-01T12:54:50;4.50;;;4.10;;
3193;SDS011;1608;50.860;13.466;2022-07-01T12:57:17;4.43;;;4.10;;
3193;SDS011;1608;50.860;13.466;2022-07-01T12:59:55;5.33;;;4.93;;
3193;SDS011;1608;50.860;13.466;2022-07-01T13:02:23;4.00;;;3.60;;
3193;SDS011;1608;50.860;13.466;2022-07-01T13:04:50;3.63;;;3.30;;
3193;SDS011;1608;50.860;13.466;2022-07-01T13:07:17;4.10;;;3.70;;
3193;SDS011;1608;50.860;13.466;2022-07-01T13:09:44;4.40;;;3.60;;
3193;SDS011;1608;50.860;13.466;2022-07-01T13:12:10;3.97;;;3.40;;
3193;SDS011;1608;50.860;13.466;2022-07-01T13:14:37;4.90;;;4.50;;
3193;SDS011;1608;50.860;13.466;2022-07-01T13:17:04;3.90;;;3.43;;
3193;SDS011;1608;50.860;13.466;2022-07-01T13:19:32;3.43;;;3.13;;
3193;SDS011;1608;50.860;13.466;2022-07-01T13:21:59;4.23;;;3.57;;
3193;SDS011;1608;50.860;13.466;2022-07-01T13:24:27;5.70;;;4.57;;
3193;SDS011;1608;50.860;13.466;2022-07-01T13:26:53;4.40;;;4.00;;
3193;SDS011;1608;50.860;13.466;2022-07-01T13:29:21;5.00;;;4.30;;
3193;SDS011;1608;50.860;13.466;2022-07-01T13:31:47;5.77;;;5.20;;
3193;SDS011;1608;50.860;13.466;2022-07-01T13:34:14;5.13;;;4.63;;
3193;SDS011;1608;50.860;13.466;2022-07-01T13:36:42;6.97;;;5.10;;
3193;SDS011;1608;50.860;13.466;2022-07-01T13:39:09;6.07;;;5.47;;
3193;SDS011;1608;50.860;13.466;2022-07-01T13:41:36;7.10;;;5.77;;
3193;SDS011;1608;50.860;13.466;2022-07-01T13:44:03;5.83;;;5.20;;
3193;SDS011;1608;50.860;13.466;2022-07-01T13:46:30;5.83;;;5.23;;
3193;SDS011;1608;50.860;13.466;2022-07-01T13:48:57;6.30;;;5.70;;
3193;SDS011;1608;50.860;13.466;2022-07-01T13:51:24;6.60;;;6.00;;
3193;SDS011;1608;50.860;13.466;2022-07-01T13:53:52;15.03;;;6.47;;
3193;SDS011;1608;50.860;13.466;2022-07-01T13:56:18;7.03;;;6.33;;
3193;SDS011;1608;50.860;13.466;2022-07-01T13:58:46;6.27;;;5.67;;
3193;SDS011;1608;50.860;13.466;2022-07-01T14:01:15;6.27;;;5.73;;
3193;SDS011;1608;50.860;13.466;2022-07-01T14:03:42;6.50;;;5.90;;
3193;SDS011;1608;50.860;13.466;2022-07-01T14:06:09;6.33;;;5.50;;
3193;SDS011;1608;50.860;13.466;2022-07-01T14:08:36;9.00;;;5.63;;
3193;SDS011;1608;50.860;13.466;2022-07-01T14:11:04;6.33;;;5.70;;
3193;SDS011;1608;50.860;13.466;2022-07-01T14:13:31;7.33;;;5.50;;
3193;SDS011;1608;50.860;13.466;2022-07-01T14:15:59;6.30;;;5.70;;
3193;SDS011;1608;50.860;13.466;2022-07-01T14:18:26;5.33;;;4.83;;
3193;SDS011;1608;50.860;13.466;2022-07-01T14:20:53;6.60;;;5.63;;
3193;SDS011;1608;50.860;13.466;2022-07-01T14:23:20;7.90;;;7.10;;
3193;SDS011;1608;50.860;13.466;2022-07-01T14:25:46;9.00;;;7.00;;
3193;SDS011;1608;50.860;13.466;2022-07-01T14:28:14;7.50;;;6.70;;
3193;SDS011;1608;50.860;13.466;2022-07-01T14:30:41;8.10;;;6.27;;
3193;SDS011;1608;50.860;13.466;2022-07-01T14:33:08;8.40;;;7.20;;
3193;SDS011;1608;50.860;13.466;2022-07-01T14:35:35;7.43;;;6.30;;
3193;SDS011;1608;50.860;13.466;2022-07-01T14:38:02;9.67;;;7.00;;
3193;SDS011;1608;50.860;13.466;2022-07-01T14:40:30;7.87;;;6.97;;
3193;SDS011;1608;50.860;13.466;2022-07-01T14:42:57;7.43;;;6.70;;
3193;SDS011;1608;50.860;13.466;2022-07-01T14:45:25;7.20;;;6.10;;
3193;SDS011;1608;50.860;13.466;2022-07-01T14:47:52;8.60;;;6.87;;
3193;SDS011;1608;50.860;13.466;2022-07-01T14:50:18;8.33;;;6.13;;
3193;SDS011;1608;50.860;13.466;2022-07-01T14:52:45;7.50;;;6.50;;
3193;SDS011;1608;50.860;13.466;2022-07-01T14:55:13;7.33;;;6.50;;
3193;SDS011;1608;50.860;13.466;2022-07-01T14:57:39;6.90;;;6.30;;
3193;SDS011;1608;50.860;13.466;2022-07-01T15:00:07;9.47;;;6.00;;